sensor_id;sensor_type;location;lat;lon;timestamp;pressure;altitude;pressure_sealevel;temperature;humidity
9059;BME280;4564;42.034;25.834;2023-07-24T00:01:46;100282.09;;;22.53;100.00
9059;BME280;4564;42.034;25.834;2023-07-24T00:04:12;100285.94;;;22.52;100.00
9059;BME280;4564;42.034;25.834;2023-07-24T00:06:39;100276.53;;;22.48;100.00
9059;BME280;4564;42.034;25.834;2023-07-24T00:09:05;100270.22;;;22.57;100.00
9059;BME280;4564;42.034;25.834;2023-07-24T00:11:32;100269.09;;;22.53;100.00
9059;BME280;4564;42.034;25.834;2023-07-24T00:14:00;100275.19;;;22.50;100.00
9059;BME280;4564;42.034;25.834;2023-07-24T00:16:27;100267.66;;;22.46;100.00
9059;BME280;4564;42.034;25.834;2023-07-24T00:18:53;100275.94;;;22.46;100.00
9059;BME280;4564;42.034;25.834;2023-07-24T00:21:20;100272.59;;;22.39;100.00
9059;BME280;4564;42.034;25.834;2023-07-24T00:23:46;100266.72;;;22.30;100.00
9059;BME280;4564;42.034;25.834;2023-07-24T00:26:13;100263.94;;;22.30;100.00
9059;BME280;4564;42.034;25.834;2023-07-24T00:28:39;100264.78;;;22.31;100.00
9059;BME280;4564;42.034;25.834;2023-07-24T00:31:07;100261.50;;;22.34;100.00
9059;BME280;4564;42.034;25.834;2023-07-24T00:36:00;100269.28;;;22.42;100.00
9059;BME280;4564;42.034;25.834;2023-07-24T00:38:27;100268.41;;;22.36;100.00
9059;BME280;4564;42.034;25.834;2023-07-24T00:40:53;100268.13;;;22.33;100.00
9059;BME280;4564;42.034;25.834;2023-07-24T00:43:20;100275.81;;;22.26;100.00
9059;BME280;4564;42.034;25.834;2023-07-24T00:45:46;100272.75;;;22.22;100.00
9059;BME280;4564;42.034;25.834;2023-07-24T00:48:15;100269.09;;;22.16;100.00
9059;BME280;4564;42.034;25.834;2023-07-24T00:50:42;100259.63;;;22.07;100.00
9059;BME280;4564;42.034;25.834;2023-07-24T00:53:09;100265.25;;;22.17;100.00
9059;BME280;4564;42.034;25.834;2023-07-24T00:55:37;100259.88;;;22.38;100.00
9059;BME280;4564;42.034;25.834;2023-07-24T00:58:03;100264.56;;;22.37;100.00
9059;BME280;4564;42.034;25.834;2023-07-24T01:00:30;100264.25;;;22.34;100.00
9059;BME280;4564;42.034;25.834;2023-07-24T01:02:57;100264.16;;;22.18;100.00
9059;BME280;4564;42.034;25.834;2023-07-24T01:05:26;100260.78;;;22.11;100.00
9059;BME280;4564;42.034;25.834;2023-07-24T01:07:53;100260.78;;;22.11;100.00
9059;BME280;4564;42.034;25.834;2023-07-24T01:10:19;100267.19;;;22.17;100.00
9059;BME280;4564;42.034;25.834;2023-07-24T01:12:49;100265.25;;;22.17;100.00
9059;BME280;4564;42.034;25.834;2023-07-24T01:15:20;100265.72;;;22.09;100.00
9059;BME280;4564;42.034;25.834;2023-07-24T01:17:50;100269.56;;;22.08;100.00
9059;BME280;4564;42.034;25.834;2023-07-24T01:20:19;100265.47;;;22.11;100.00
9059;BME280;4564;42.034;25.834;2023-07-24T01:22:53;100260.91;;;21.95;100.00
9059;BME280;4564;42.034;25.834;2023-07-24T01:25:26;100266.50;;;21.78;100.00
9059;BME280;4564;42.034;25.834;2023-07-24T01:27:55;100270.91;;;21.74;100.00
9059;BME280;4564;42.034;25.834;2023-07-24T01:30:22;100272.25;;;21.71;100.00
9059;BME280;4564;42.034;25.834;2023-07-24T01:32:48;100263.06;;;21.66;99.79
9059;BME280;4564;42.034;25.834;2023-07-24T01:35:15;100264.84;;;21.77;100.00
9059;BME280;4564;42.034;25.834;2023-07-24T01:37:42;100263.69;;;21.73;99.72
9059;BME280;4564;42.034;25.834;2023-07-24T01:40:09;100257.91;;;21.74;100.00
9059;BME280;4564;42.034;25.834;2023-07-24T01:42:37;100264.09;;;21.60;100.00
9059;BME280;4564;42.034;25.834;2023-07-24T01:45:06;100260.25;;;21.61;100.00
9059;BME280;4564;42.034;25.834;2023-07-24T01:47:33;100258.97;;;21.68;100.00
9059;BME280;4564;42.034;25.834;2023-07-24T01:50:00;100259.31;;;21.77;100.00
9059;BME280;4564;42.034;25.834;2023-07-24T01:52:26;100259.91;;;21.79;100.00
9059;BME280;4564;42.034;25.834;2023-07-24T01:54:53;100268.13;;;21.74;100.00
9059;BME280;4564;42.034;25.834;2023-07-24T01:57:19;100275.16;;;21.60;100.00
9059;BME280;4564;42.034;25.834;2023-07-24T01:59:46;100280.06;;;21.53;100.00
9059;BME280;4564;42.034;25.834;2023-07-24T02:02:15;100271.00;;;21.57;100.00
9059;BME280;4564;42.034;25.834;2023-07-24T02:04:42;100279.03;;;21.59;100.00
9059;BME280;4564;42.034;25.834;2023-07-24T02:07:08;100285.50;;;21.69;99.86
9059;BME280;4564;42.034;25.834;2023-07-24T02:09:35;100279.25;;;21.79;99.17
9059;BME280;4564;42.034;25.834;2023-07-24T02:12:02;100272.34;;;21.82;99.25
9059;BME280;4564;42.034;25.834;2023-07-24T02:14:29;100278.31;;;21.95;100.00
9059;BME280;4564;42.034;25.834;2023-07-24T02:16:56;100277.66;;;22.15;100.00
9059;BME280;4564;42.034;25.834;2023-07-24T02:19:24;100276.94;;;22.30;100.00
9059;BME280;4564;42.034;25.834;2023-07-24T02:21:50;100277.50;;;22.32;100.00
9059;BME280;4564;42.034;25.834;2023-07-24T02:24:17;100276.06;;;22.24;100.00
9059;BME280;4564;42.034;25.834;2023-07-24T02:26:44;100276.59;;;22.21;100.00
9059;BME280;4564;42.034;25.834;2023-07-24T02:29:10;100280.78;;;22.24;100.00
9059;BME280;4564;42.034;25.834;2023-07-24T02:31:37;100285.22;;;22.30;100.00
9059;BME280;4564;42.034;25.834;2023-07-24T02:34:04;100279.78;;;22.35;100.00
9059;BME280;4564;42.034;25.834;2023-07-24T02:36:32;100290.25;;;22.33;100.00
9059;BME280;4564;42.034;25.834;2023-07-24T02:38:58;100283.34;;;22.35;100.00
9059;BME280;4564;42.034;25.834;2023-07-24T02:41:25;100280.81;;;22.29;100.00
9059;BME280;4564;42.034;25.834;2023-07-24T02:43:51;100285.84;;;22.37;100.00
9059;BME280;4564;42.034;25.834;2023-07-24T02:46:18;100289.66;;;22.31;100.00
9059;BME280;4564;42.034;25.834;2023-07-24T02:48:44;100284.19;;;22.36;100.00
9059;BME280;4564;42.034;25.834;2023-07-24T02:51:11;100285.59;;;22.38;100.00
9059;BME280;4564;42.034;25.834;2023-07-24T02:53:39;100283.38;;;22.40;100.00
9059;BME280;4564;42.034;25.834;2023-07-24T02:56:05;100291.31;;;22.27;100.00
9059;BME280;4564;42.034;25.834;2023-07-24T02:58:32;100289.13;;;22.29;100.00
9059;BME280;4564;42.034;25.834;2023-07-24T03:01:02;100281.16;;;22.37;100.00
9059;BME280;4564;42.034;25.834;2023-07-24T03:03:28;100279.69;;;22.30;100.00
9059;BME280;4564;42.034;25.834;2023-07-24T03:05:55;100284.00;;;22.47;100.00
9059;BME280;4564;42.034;25.834;2023-07-24T03:08:22;100288.88;;;22.35;100.00
9059;BME280;4564;42.034;25.834;2023-07-24T03:10:50;100285.84;;;22.37;100.00
9059;BME280;4564;42.034;25.834;2023-07-24T03:13:16;100285.34;;;22.40;100.00
9059;BME280;4564;42.034;25.834;2023-07-24T03:15:43;100289.34;;;22.59;100.00
9059;BME280;4564;42.034;25.834;2023-07-24T03:18:09;100289.38;;;22.64;100.00
9059;BME280;4564;42.034;25.834;2023-07-24T03:20:36;100294.28;;;22.57;100.00
9059;BME280;4564;42.034;25.834;2023-07-24T03:23:02;100296.97;;;22.47;100.00
9059;BME280;4564;42.034;25.834;2023-07-24T03:25:29;100283.66;;;22.39;100.00
9059;BME280;4564;42.034;25.834;2023-07-24T03:27:58;100284.44;;;22.29;100.00
9059;BME280;4564;42.034;25.834;2023-07-24T03:30:25;100288.63;;;22.37;100.00
9059;BME280;4564;42.034;25.834;2023-07-24T03:32:51;100289.78;;;22.46;100.00
9059;BME280;4564;42.034;25.834;2023-07-24T03:35:18;100282.63;;;22.50;100.00
9059;BME280;4564;42.034;25.834;2023-07-24T03:37:44;100280.44;;;22.57;100.00
9059;BME280;4564;42.034;25.834;2023-07-24T03:40:11;100284.94;;;22.68;100.00
9059;BME280;4564;42.034;25.834;2023-07-24T03:42:39;100283.41;;;22.77;100.00
9059;BME280;4564;42.034;25.834;2023-07-24T03:45:07;100281.72;;;22.76;100.00
9059;BME280;4564;42.034;25.834;2023-07-24T03:47:34;100283.66;;;22.76;100.00
9059;BME280;4564;42.034;25.834;2023-07-24T03:50:00;100289.94;;;22.66;100.00
9059;BME280;4564;42.034;25.834;2023-07-24T03:52:27;100293.22;;;22.63;100.00
9059;BME280;4564;42.034;25.834;2023-07-24T03:54:54;100292.69;;;22.61;100.00
9059;BME280;4564;42.034;25.834;2023-07-24T03:57:20;100299.97;;;22.72;100.00
9059;BME280;4564;42.034;25.834;2023-07-24T03:59:47;100293.31;;;22.73;100.00
9059;BME280;4564;42.034;25.834;2023-07-24T04:02:15;100293.09;;;22.80;100.00
9059;BME280;4564;42.034;25.834;2023-07-24T04:04:41;100300.34;;;22.91;100.00
9059;BME280;4564;42.034;25.834;2023-07-24T04:07:08;100304.56;;;22.98;100.00
9059;BME280;4564;42.034;25.834;2023-07-24T04:09:35;100307.38;;;23.09;100.00
9059;BME280;4564;42.034;25.834;2023-07-24T04:12:01;100312.97;;;23.24;100.00
9059;BME280;4564;42.034;25.834;2023-07-24T04:14:28;100308.03;;;23.26;100.00
9059;BME280;4564;42.034;25.834;2023-07-24T04:16:54;100307.47;;;23.29;100.00
9059;BME280;4564;42.034;25.834;2023-07-24T04:19:22;100299.13;;;23.24;100.00
9059;BME280;4564;42.034;25.834;2023-07-24T04:21:49;100296.91;;;23.16;100.00
9059;BME280;4564;42.034;25.834;2023-07-24T04:24:16;100298.31;;;23.28;100.00
9059;BME280;4564;42.034;25.834;2023-07-24T04:26:42;100297.19;;;23.24;100.00
9059;BME280;4564;42.034;25.834;2023-07-24T04:29:09;100304.09;;;23.22;100.00
9059;BME280;4564;42.034;25.834;2023-07-24T04:31:35;100308.28;;;23.24;100.00
9059;BME280;4564;42.034;25.834;2023-07-24T04:34:02;100315.78;;;23.34;100.00
9059;BME280;4564;42.034;25.834;2023-07-24T04:36:30;100312.50;;;23.37;100.00
9059;BME280;4564;42.034;25.834;2023-07-24T04:38:56;100313.84;;;23.34;100.00
9059;BME280;4564;42.034;25.834;2023-07-24T04:41:23;100317.19;;;23.31;100.00
9059;BME280;4564;42.034;25.834;2023-07-24T04:43:49;100316.91;;;23.43;100.00
9059;BME280;4564;42.034;25.834;2023-07-24T04:46:16;100314.72;;;23.40;100.00
9059;BME280;4564;42.034;25.834;2023-07-24T04:48:42;100318.66;;;23.59;99.35
9059;BME280;4564;42.034;25.834;2023-07-24T04:51:09;100310.88;;;23.46;99.74
9059;BME280;4564;42.034;25.834;2023-07-24T04:53:37;100317.91;;;23.17;100.00
9059;BME280;4564;42.034;25.834;2023-07-24T04:56:03;100317.59;;;23.03;100.00
9059;BME280;4564;42.034;25.834;2023-07-24T04:58:30;100330.03;;;23.06;100.00
9059;BME280;4564;42.034;25.834;2023-07-24T05:00:57;100330.38;;;23.09;100.00
9059;BME280;4564;42.034;25.834;2023-07-24T05:03:23;100333.41;;;23.13;100.00
9059;BME280;4564;42.034;25.834;2023-07-24T05:05:53;100331.31;;;23.35;100.00
9059;BME280;4564;42.034;25.834;2023-07-24T05:08:20;100335.56;;;23.48;98.94
9059;BME280;4564;42.034;25.834;2023-07-24T05:10:53;100332.50;;;23.54;98.93
9059;BME280;4564;42.034;25.834;2023-07-24T05:13:19;100333.66;;;23.58;98.14
9059;BME280;4564;42.034;25.834;2023-07-24T05:15:46;100333.13;;;23.66;98.35
9059;BME280;4564;42.034;25.834;2023-07-24T05:18:12;100333.47;;;23.85;98.05
9059;BME280;4564;42.034;25.834;2023-07-24T05:20:42;100333.47;;;23.85;97.25
9059;BME280;4564;42.034;25.834;2023-07-24T05:23:08;100344.00;;;23.93;97.10
9059;BME280;4564;42.034;25.834;2023-07-24T05:25:35;100350.97;;;24.06;96.75
9059;BME280;4564;42.034;25.834;2023-07-24T05:28:03;100355.94;;;24.04;97.31
9059;BME280;4564;42.034;25.834;2023-07-24T05:30:30;100349.63;;;24.23;96.49
9059;BME280;4564;42.034;25.834;2023-07-24T05:32:56;100350.19;;;24.46;95.19
9059;BME280;4564;42.034;25.834;2023-07-24T05:35:23;100342.13;;;24.70;94.42
9059;BME280;4564;42.034;25.834;2023-07-24T05:37:50;100352.09;;;25.01;92.76
9059;BME280;4564;42.034;25.834;2023-07-24T05:40:16;100357.63;;;25.16;91.24
9059;BME280;4564;42.034;25.834;2023-07-24T05:42:43;100365.94;;;25.21;91.06
9059;BME280;4564;42.034;25.834;2023-07-24T05:45:11;100361.28;;;25.01;91.57
9059;BME280;4564;42.034;25.834;2023-07-24T05:47:37;100356.25;;;24.78;92.84
9059;BME280;4564;42.034;25.834;2023-07-24T05:50:04;100357.13;;;24.89;92.66
9059;BME280;4564;42.034;25.834;2023-07-24T05:52:31;100358.50;;;24.71;92.79
9059;BME280;4564;42.034;25.834;2023-07-24T05:54:58;100362.66;;;24.74;93.11
9059;BME280;4564;42.034;25.834;2023-07-24T05:57:24;100359.59;;;24.85;92.51
9059;BME280;4564;42.034;25.834;2023-07-24T05:59:51;100356.00;;;25.10;91.37
9059;BME280;4564;42.034;25.834;2023-07-24T06:02:19;100352.41;;;24.89;92.36
9059;BME280;4564;42.034;25.834;2023-07-24T06:04:46;100344.59;;;25.01;92.07
9059;BME280;4564;42.034;25.834;2023-07-24T06:07:13;100350.97;;;25.12;91.56
9059;BME280;4564;42.034;25.834;2023-07-24T06:09:39;100358.78;;;24.90;91.40
9059;BME280;4564;42.034;25.834;2023-07-24T06:12:06;100358.78;;;24.90;92.24
9059;BME280;4564;42.034;25.834;2023-07-24T06:14:33;100357.63;;;25.06;91.81
9059;BME280;4564;42.034;25.834;2023-07-24T06:16:59;100354.56;;;25.18;91.65
9059;BME280;4564;42.034;25.834;2023-07-24T06:19:27;100355.59;;;25.42;90.24
9059;BME280;4564;42.034;25.834;2023-07-24T06:21:54;100353.53;;;25.73;89.59
9059;BME280;4564;42.034;25.834;2023-07-24T06:24:21;100346.75;;;25.94;88.44
9059;BME280;4564;42.034;25.834;2023-07-24T06:26:48;100350.19;;;26.20;86.07
9059;BME280;4564;42.034;25.834;2023-07-24T06:29:15;100353.66;;;25.97;86.79
9059;BME280;4564;42.034;25.834;2023-07-24T06:31:42;100354.09;;;25.70;88.27
9059;BME280;4564;42.034;25.834;2023-07-24T06:34:08;100347.13;;;25.77;87.78
9059;BME280;4564;42.034;25.834;2023-07-24T06:36:36;100348.50;;;25.80;87.82
9059;BME280;4564;42.034;25.834;2023-07-24T06:39:03;100354.22;;;25.99;87.05
9059;BME280;4564;42.034;25.834;2023-07-24T06:41:30;100344.69;;;26.10;86.56
9059;BME280;4564;42.034;25.834;2023-07-24T06:43:56;100345.28;;;26.46;85.51
9059;BME280;4564;42.034;25.834;2023-07-24T06:46:23;100350.28;;;26.78;83.64
9059;BME280;4564;42.034;25.834;2023-07-24T06:48:49;100356.78;;;27.02;81.89
9059;BME280;4564;42.034;25.834;2023-07-24T06:51:16;100348.81;;;27.38;80.21
9059;BME280;4564;42.034;25.834;2023-07-24T06:53:44;100351.09;;;27.36;80.95
9059;BME280;4564;42.034;25.834;2023-07-24T06:56:11;100356.50;;;27.93;78.55
9059;BME280;4564;42.034;25.834;2023-07-24T06:58:37;100349.16;;;29.32;74.24
9059;BME280;4564;42.034;25.834;2023-07-24T07:01:05;100350.22;;;31.02;67.24
9059;BME280;4564;42.034;25.834;2023-07-24T07:03:31;100359.22;;;32.18;62.28
9059;BME280;4564;42.034;25.834;2023-07-24T07:06:00;100359.06;;;32.74;59.79
9059;BME280;4564;42.034;25.834;2023-07-24T07:08:26;100362.66;;;34.47;54.63
9059;BME280;4564;42.034;25.834;2023-07-24T07:10:55;100363.25;;;34.74;53.59
9059;BME280;4564;42.034;25.834;2023-07-24T07:13:22;100353.78;;;35.48;51.36
9059;BME280;4564;42.034;25.834;2023-07-24T07:15:49;100356.59;;;36.21;48.21
9059;BME280;4564;42.034;25.834;2023-07-24T07:18:16;100350.16;;;35.84;49.53
9059;BME280;4564;42.034;25.834;2023-07-24T07:20:44;100347.78;;;35.86;48.89
9059;BME280;4564;42.034;25.834;2023-07-24T07:23:11;100353.63;;;36.57;47.69
9059;BME280;4564;42.034;25.834;2023-07-24T07:25:37;100356.44;;;36.69;46.56
9059;BME280;4564;42.034;25.834;2023-07-24T07:28:06;100351.75;;;36.09;46.03
9059;BME280;4564;42.034;25.834;2023-07-24T07:30:32;100341.31;;;35.61;49.01
9059;BME280;4564;42.034;25.834;2023-07-24T07:32:59;100348.34;;;36.15;47.52
9059;BME280;4564;42.034;25.834;2023-07-24T07:35:26;100352.19;;;36.91;45.26
9059;BME280;4564;42.034;25.834;2023-07-24T07:37:52;100338.09;;;38.04;42.06
9059;BME280;4564;42.034;25.834;2023-07-24T07:40:19;100344.56;;;38.59;42.24
9059;BME280;4564;42.034;25.834;2023-07-24T07:42:48;100341.16;;;38.15;41.56
9059;BME280;4564;42.034;25.834;2023-07-24T07:45:16;100340.19;;;38.07;41.56
9059;BME280;4564;42.034;25.834;2023-07-24T07:47:42;100345.50;;;37.93;42.07
9059;BME280;4564;42.034;25.834;2023-07-24T07:50:09;100344.44;;;38.17;41.96
9059;BME280;4564;42.034;25.834;2023-07-24T07:52:36;100340.50;;;38.41;40.25
9059;BME280;4564;42.034;25.834;2023-07-24T07:55:03;100340.13;;;38.61;39.37
9059;BME280;4564;42.034;25.834;2023-07-24T07:57:31;100330.13;;;38.29;40.25
9059;BME280;4564;42.034;25.834;2023-07-24T07:59:58;100331.59;;;38.23;40.27
9059;BME280;4564;42.034;25.834;2023-07-24T08:02:26;100325.84;;;37.85;40.15
9059;BME280;4564;42.034;25.834;2023-07-24T08:04:52;100326.56;;;38.32;39.81
9059;BME280;4564;42.034;25.834;2023-07-24T08:07:19;100324.16;;;38.73;39.19
9059;BME280;4564;42.034;25.834;2023-07-24T08:09:46;100325.53;;;38.82;38.54
9059;BME280;4564;42.034;25.834;2023-07-24T08:12:12;100330.56;;;38.31;39.35
9059;BME280;4564;42.034;25.834;2023-07-24T08:14:39;100322.53;;;37.48;40.68
9059;BME280;4564;42.034;25.834;2023-07-24T08:17:06;100320.81;;;37.12;42.53
9059;BME280;4564;42.034;25.834;2023-07-24T08:19:34;100317.91;;;36.25;43.29
9059;BME280;4564;42.034;25.834;2023-07-24T08:22:00;100307.78;;;35.71;44.67
9059;BME280;4564;42.034;25.834;2023-07-24T08:24:27;100298.16;;;35.24;46.25
9059;BME280;4564;42.034;25.834;2023-07-24T08:26:54;100297.72;;;34.89;46.72
9059;BME280;4564;42.034;25.834;2023-07-24T08:29:20;100301.09;;;34.70;48.21
9059;BME280;4564;42.034;25.834;2023-07-24T08:31:47;100296.66;;;34.61;47.49
9059;BME280;4564;42.034;25.834;2023-07-24T08:34:14;100295.28;;;34.67;48.13
9059;BME280;4564;42.034;25.834;2023-07-24T08:36:41;100294.38;;;34.42;47.94
9059;BME280;4564;42.034;25.834;2023-07-24T08:39:08;100285.19;;;33.91;49.01
9059;BME280;4564;42.034;25.834;2023-07-24T08:41:36;100281.22;;;33.92;49.74
9059;BME280;4564;42.034;25.834;2023-07-24T08:44:02;100283.69;;;33.73;49.85
9059;BME280;4564;42.034;25.834;2023-07-24T08:46:30;100277.97;;;33.82;47.91
9059;BME280;4564;42.034;25.834;2023-07-24T08:48:58;100269.72;;;33.47;48.85
9059;BME280;4564;42.034;25.834;2023-07-24T08:51:24;100272.84;;;33.54;50.72
9059;BME280;4564;42.034;25.834;2023-07-24T08:53:52;100269.25;;;33.75;49.87
9059;BME280;4564;42.034;25.834;2023-07-24T08:56:19;100265.56;;;33.53;48.89
9059;BME280;4564;42.034;25.834;2023-07-24T08:58:46;100261.66;;;33.08;50.29
9059;BME280;4564;42.034;25.834;2023-07-24T09:01:12;100259.78;;;33.20;49.81
9059;BME280;4564;42.034;25.834;2023-07-24T09:03:39;100257.78;;;33.29;49.80
9059;BME280;4564;42.034;25.834;2023-07-24T09:06:06;100263.03;;;33.02;49.39
9059;BME280;4564;42.034;25.834;2023-07-24T09:08:33;100260.78;;;33.24;46.71
9059;BME280;4564;42.034;25.834;2023-07-24T09:11:02;100255.69;;;33.18;49.42
9059;BME280;4564;42.034;25.834;2023-07-24T09:13:29;100247.97;;;33.36;48.77
9059;BME280;4564;42.034;25.834;2023-07-24T09:15:56;100246.56;;;33.21;48.81
9059;BME280;4564;42.034;25.834;2023-07-24T09:18:24;100238.47;;;33.11;49.13
9059;BME280;4564;42.034;25.834;2023-07-24T09:20:51;100221.28;;;32.74;49.93
9059;BME280;4564;42.034;25.834;2023-07-24T09:23:25;100234.00;;;32.80;49.69
9059;BME280;4564;42.034;25.834;2023-07-24T09:25:52;100231.13;;;32.89;48.51
9059;BME280;4564;42.034;25.834;2023-07-24T09:28:20;100224.78;;;32.71;47.72
9059;BME280;4564;42.034;25.834;2023-07-24T09:30:53;100230.47;;;32.92;48.08
9059;BME280;4564;42.034;25.834;2023-07-24T09:33:20;100223.50;;;32.98;48.34
9059;BME280;4564;42.034;25.834;2023-07-24T09:35:56;100223.72;;;32.84;49.47
9059;BME280;4564;42.034;25.834;2023-07-24T09:38:23;100222.75;;;33.10;47.03
9059;BME280;4564;42.034;25.834;2023-07-24T09:40:50;100219.75;;;32.85;46.49
9059;BME280;4564;42.034;25.834;2023-07-24T09:43:20;100214.50;;;32.75;47.42
9059;BME280;4564;42.034;25.834;2023-07-24T09:45:47;100202.56;;;32.78;48.19
9059;BME280;4564;42.034;25.834;2023-07-24T09:48:14;100211.16;;;33.11;48.18
9059;BME280;4564;42.034;25.834;2023-07-24T09:50:45;100199.72;;;33.25;46.05
9059;BME280;4564;42.034;25.834;2023-07-24T09:53:12;100198.97;;;33.57;45.55
9059;BME280;4564;42.034;25.834;2023-07-24T09:55:43;100194.00;;;33.96;44.45
9059;BME280;4564;42.034;25.834;2023-07-24T09:58:12;100189.84;;;33.81;43.17
9059;BME280;4564;42.034;25.834;2023-07-24T10:00:41;100188.91;;;33.27;42.13
9059;BME280;4564;42.034;25.834;2023-07-24T10:03:08;100189.38;;;33.00;42.72
9059;BME280;4564;42.034;25.834;2023-07-24T10:05:36;100188.88;;;32.68;41.18
9059;BME280;4564;42.034;25.834;2023-07-24T10:08:03;100188.63;;;32.90;41.93
9059;BME280;4564;42.034;25.834;2023-07-24T10:10:29;100187.94;;;32.94;42.17
9059;BME280;4564;42.034;25.834;2023-07-24T10:12:57;100184.69;;;32.83;42.16
9059;BME280;4564;42.034;25.834;2023-07-24T10:15:24;100172.38;;;32.58;42.61
9059;BME280;4564;42.034;25.834;2023-07-24T10:18:00;100171.53;;;32.66;39.75
9059;BME280;4564;42.034;25.834;2023-07-24T10:20:32;100168.78;;;32.49;40.29
9059;BME280;4564;42.034;25.834;2023-07-24T10:23:00;100166.69;;;32.29;38.51
9059;BME280;4564;42.034;25.834;2023-07-24T10:25:28;100150.41;;;32.52;38.74
9059;BME280;4564;42.034;25.834;2023-07-24T10:28:00;100145.59;;;32.52;38.71
9059;BME280;4564;42.034;25.834;2023-07-24T10:30:28;100155.91;;;32.86;38.90
9059;BME280;4564;42.034;25.834;2023-07-24T10:33:04;100145.81;;;33.14;37.80
9059;BME280;4564;42.034;25.834;2023-07-24T10:35:36;100148.91;;;33.42;39.04
9059;BME280;4564;42.034;25.834;2023-07-24T10:38:02;100145.63;;;33.82;37.74
9059;BME280;4564;42.034;25.834;2023-07-24T10:40:29;100140.50;;;33.96;37.61
9059;BME280;4564;42.034;25.834;2023-07-24T10:43:00;100140.63;;;33.99;35.49
9059;BME280;4564;42.034;25.834;2023-07-24T10:45:37;100136.13;;;34.19;34.86
9059;BME280;4564;42.034;25.834;2023-07-24T10:48:06;100142.78;;;34.14;34.15
9059;BME280;4564;42.034;25.834;2023-07-24T10:50:37;100133.66;;;33.85;34.77
9059;BME280;4564;42.034;25.834;2023-07-24T10:53:03;100141.03;;;33.56;34.23
9059;BME280;4564;42.034;25.834;2023-07-24T10:55:30;100131.59;;;33.31;33.66
9059;BME280;4564;42.034;25.834;2023-07-24T10:57:56;100129.69;;;33.23;33.23
9059;BME280;4564;42.034;25.834;2023-07-24T11:00:23;100124.28;;;33.10;34.55
9059;BME280;4564;42.034;25.834;2023-07-24T11:02:51;100113.66;;;33.24;34.22
9059;BME280;4564;42.034;25.834;2023-07-24T11:05:21;100113.22;;;33.34;33.32
9059;BME280;4564;42.034;25.834;2023-07-24T11:07:47;100107.50;;;33.43;33.93
9059;BME280;4564;42.034;25.834;2023-07-24T11:10:14;100109.44;;;33.51;33.15
9059;BME280;4564;42.034;25.834;2023-07-24T11:12:41;100109.50;;;33.42;33.92
9059;BME280;4564;42.034;25.834;2023-07-24T11:15:08;100103.19;;;33.45;31.52
9059;BME280;4564;42.034;25.834;2023-07-24T11:17:38;100098.34;;;33.34;31.93
9059;BME280;4564;42.034;25.834;2023-07-24T11:20:09;100090.31;;;33.23;32.49
9059;BME280;4564;42.034;25.834;2023-07-24T11:22:43;100089.34;;;33.19;32.53
9059;BME280;4564;42.034;25.834;2023-07-24T11:25:11;100090.56;;;33.51;32.65
9059;BME280;4564;42.034;25.834;2023-07-24T11:27:39;100081.34;;;33.63;32.62
9059;BME280;4564;42.034;25.834;2023-07-24T11:30:07;100082.09;;;33.72;32.85
9059;BME280;4564;42.034;25.834;2023-07-24T11:32:34;100083.81;;;33.64;31.42
9059;BME280;4564;42.034;25.834;2023-07-24T11:35:03;100069.78;;;33.77;32.92
9059;BME280;4564;42.034;25.834;2023-07-24T11:37:30;100072.63;;;33.77;32.17
9059;BME280;4564;42.034;25.834;2023-07-24T11:39:59;100059.47;;;33.68;31.35
9059;BME280;4564;42.034;25.834;2023-07-24T11:42:32;100061.34;;;33.77;32.23
9059;BME280;4564;42.034;25.834;2023-07-24T11:45:08;100052.78;;;33.85;32.52
9059;BME280;4564;42.034;25.834;2023-07-24T11:47:42;100060.38;;;34.05;31.85
9059;BME280;4564;42.034;25.834;2023-07-24T11:50:29;100055.78;;;34.13;30.61
9059;BME280;4564;42.034;25.834;2023-07-24T11:53:01;100055.84;;;34.37;31.56
9059;BME280;4564;42.034;25.834;2023-07-24T11:55:42;100048.97;;;34.14;30.49
9059;BME280;4564;42.034;25.834;2023-07-24T11:58:29;100046.00;;;33.86;31.17
9059;BME280;4564;42.034;25.834;2023-07-24T12:01:15;100038.06;;;33.67;30.16
9059;BME280;4564;42.034;25.834;2023-07-24T12:03:43;100028.31;;;33.65;31.01
9059;BME280;4564;42.034;25.834;2023-07-24T12:06:30;100030.63;;;33.84;30.43
9059;BME280;4564;42.034;25.834;2023-07-24T12:09:17;100031.34;;;33.93;31.19
9059;BME280;4564;42.034;25.834;2023-07-24T12:12:05;100031.94;;;33.98;30.29
9059;BME280;4564;42.034;25.834;2023-07-24T12:14:52;100029.47;;;33.97;30.18
9059;BME280;4564;42.034;25.834;2023-07-24T12:17:38;100027.59;;;33.89;30.53
9059;BME280;4564;42.034;25.834;2023-07-24T12:20:25;100027.94;;;33.54;29.23
9059;BME280;4564;42.034;25.834;2023-07-24T12:23:11;100029.44;;;33.72;29.29
9059;BME280;4564;42.034;25.834;2023-07-24T12:25:58;100018.50;;;33.71;28.52
9059;BME280;4564;42.034;25.834;2023-07-24T12:28:39;100013.22;;;33.69;29.24
9059;BME280;4564;42.034;25.834;2023-07-24T12:31:26;100008.81;;;33.93;29.76
9059;BME280;4564;42.034;25.834;2023-07-24T12:33:58;100010.22;;;33.99;30.45
9059;BME280;4564;42.034;25.834;2023-07-24T12:36:44;100002.47;;;34.08;27.86
9059;BME280;4564;42.034;25.834;2023-07-24T12:39:32;100005.44;;;34.11;29.49
9059;BME280;4564;42.034;25.834;2023-07-24T12:42:19;99993.06;;;33.92;28.69
9059;BME280;4564;42.034;25.834;2023-07-24T12:45:07;99996.13;;;33.87;29.21
9059;BME280;4564;42.034;25.834;2023-07-24T12:47:54;99981.81;;;33.92;27.55
9059;BME280;4564;42.034;25.834;2023-07-24T12:50:41;99983.00;;;33.79;28.10
9059;BME280;4564;42.034;25.834;2023-07-24T12:53:27;99970.69;;;33.95;28.41
9059;BME280;4564;42.034;25.834;2023-07-24T12:56:14;99979.25;;;34.11;27.66
9059;BME280;4564;42.034;25.834;2023-07-24T12:59:01;99967.75;;;34.16;27.19
9059;BME280;4564;42.034;25.834;2023-07-24T13:01:49;99966.13;;;34.27;28.00
9059;BME280;4564;42.034;25.834;2023-07-24T13:04:35;99962.59;;;34.30;26.47
9059;BME280;4564;42.034;25.834;2023-07-24T13:07:22;99961.03;;;34.45;27.60
9059;BME280;4564;42.034;25.834;2023-07-24T13:10:09;99960.19;;;34.57;26.89